createdAt,value
2024-05-09T00:00:46.421Z,53.68
2024-05-09T00:03:34.034Z,53.93
2024-05-09T00:06:01.615Z,54.77
2024-05-09T00:08:29.352Z,55.12
2024-05-09T00:10:56.662Z,55.69
2024-05-09T00:13:24.200Z,56.46
2024-05-09T00:15:51.378Z,57.07
2024-05-09T00:18:19.094Z,57.31
2024-05-09T00:20:46.345Z,57.59
2024-05-09T00:23:14.229Z,58.02
2024-05-09T00:25:45.453Z,58.45
2024-05-09T00:28:14.221Z,59.14
2024-05-09T00:30:41.788Z,59.08
2024-05-09T00:33:10.860Z,59.32
2024-05-09T00:35:39.816Z,59.82
2024-05-09T00:38:07.628Z,60.15
2024-05-09T00:40:41.021Z,60.21
2024-05-09T00:43:12.397Z,60.82
2024-05-09T00:45:40.649Z,60.90
2024-05-09T00:48:11.084Z,61.12
2024-05-09T00:50:42.508Z,61.20
2024-05-09T00:53:16.654Z,61.53
2024-05-09T00:55:45.066Z,62.05
2024-05-09T00:58:18.373Z,61.86
2024-05-09T01:00:45.625Z,62.09
2024-05-09T01:03:14.352Z,62.54
2024-05-09T01:05:45.196Z,62.04
2024-05-09T01:08:13.420Z,62.55
2024-05-09T01:10:43.720Z,62.34
2024-05-09T01:13:12.874Z,62.69
2024-05-09T01:15:40.376Z,62.94
2024-05-09T01:18:12.096Z,62.79
2024-05-09T01:20:43.417Z,63.36
2024-05-09T01:23:15.370Z,63.54
2024-05-09T01:25:44.819Z,63.10
2024-05-09T01:28:12.823Z,62.54
2024-05-09T01:30:39.969Z,62.62
2024-05-09T01:33:09.765Z,62.86
2024-05-09T01:35:41.320Z,63.22
2024-05-09T01:38:12.802Z,63.41
2024-05-09T01:40:40.605Z,63.70
2024-05-09T01:43:09.635Z,63.99
2024-05-09T01:45:38.641Z,64.39
2024-05-09T01:48:07.165Z,64.32
2024-05-09T01:50:39.594Z,64.74
2024-05-09T01:53:15.151Z,64.91
2024-05-09T01:55:43.373Z,65.40
2024-05-09T01:58:11.294Z,65.66
2024-05-09T02:00:42.374Z,65.85
2024-05-09T02:03:16.086Z,65.85
2024-05-09T02:05:47.059Z,66.33
2024-05-09T02:08:22.373Z,66.22
2024-05-09T02:10:50.762Z,66.37
2024-05-09T02:13:18.770Z,67.01
2024-05-09T02:15:46.109Z,66.50
2024-05-09T02:18:14.256Z,66.75
2024-05-09T02:20:42.793Z,67.04
2024-05-09T02:23:11.393Z,67.08
2024-05-09T02:25:38.661Z,67.04
2024-05-09T02:28:06.820Z,67.26
2024-05-09T02:30:39.922Z,67.57
2024-05-09T02:33:12.301Z,67.95
2024-05-09T02:35:43.007Z,68.15
2024-05-09T02:38:12.316Z,68.10
2024-05-09T02:40:40.424Z,68.76
2024-05-09T02:43:10.831Z,68.94
2024-05-09T02:45:42.067Z,68.63
2024-05-09T02:48:13.721Z,68.94
2024-05-09T02:50:41.884Z,68.80
2024-05-09T02:53:13.155Z,69.61
2024-05-09T02:55:42.026Z,69.33
2024-05-09T02:58:10.823Z,69.49
2024-05-09T03:00:41.593Z,69.34
2024-05-09T03:03:15.136Z,69.37
2024-05-09T03:05:44.763Z,69.74
2024-05-09T03:08:13.188Z,69.66
2024-05-09T03:10:40.463Z,69.84
2024-05-09T03:13:08.781Z,69.69
2024-05-09T03:15:36.876Z,69.82
2024-05-09T03:18:06.969Z,69.83
2024-05-09T03:20:36.101Z,69.99
2024-05-09T03:23:06.331Z,70.03
2024-05-09T03:25:34.051Z,69.80
2024-05-09T03:28:01.739Z,70.21
2024-05-09T03:30:39.033Z,70.41
2024-05-09T03:33:22.761Z,69.89
2024-05-09T03:35:50.122Z,70.30
2024-05-09T03:38:17.919Z,70.46
2024-05-09T03:40:48.050Z,70.35
2024-05-09T03:43:16.373Z,70.47
2024-05-09T03:45:44.676Z,70.75
2024-05-09T03:48:12.716Z,70.66
2024-05-09T03:50:40.197Z,70.62
2024-05-09T03:53:11.518Z,70.92
2024-05-09T03:55:39.153Z,70.66
2024-05-09T03:58:12.936Z,71.01
2024-05-09T04:00:40.556Z,70.85
2024-05-09T04:03:11.141Z,71.07
2024-05-09T04:05:42.458Z,71.27
2024-05-09T04:08:11.380Z,70.87
2024-05-09T04:10:39.293Z,70.89
2024-05-09T04:13:06.927Z,70.71
2024-05-09T04:15:34.090Z,70.81
2024-05-09T04:18:02.476Z,70.71
2024-05-09T04:20:37.801Z,70.74
2024-05-09T04:23:12.249Z,70.69
2024-05-09T04:25:45.621Z,70.74
2024-05-09T04:28:14.457Z,70.76
2024-05-09T04:30:42.888Z,70.13
2024-05-09T04:33:13.158Z,70.73
2024-05-09T04:35:45.049Z,70.23
2024-05-09T04:38:14.649Z,70.25
2024-05-09T04:40:42.663Z,70.16
2024-05-09T04:43:19.665Z,70.41
2024-05-09T04:45:47.207Z,69.83
2024-05-09T04:48:15.080Z,69.98
2024-05-09T04:50:42.673Z,69.85
2024-05-09T04:53:16.628Z,69.42
2024-05-09T04:55:44.006Z,69.27
2024-05-09T04:58:11.970Z,68.60
2024-05-09T05:00:41.028Z,68.41
2024-05-09T05:03:14.310Z,68.05
2024-05-09T05:05:45.185Z,66.35
2024-05-09T05:08:18.608Z,65.80
2024-05-09T05:10:48.567Z,65.06
2024-05-09T05:13:20.040Z,64.28
2024-05-09T05:15:51.002Z,63.53
2024-05-09T05:18:19.097Z,62.99
2024-05-09T05:20:46.538Z,62.13
2024-05-09T05:23:20.913Z,61.19
2024-05-09T05:25:53.707Z,60.14
2024-05-09T05:28:22.186Z,60.10
2024-05-09T05:30:50.064Z,60.34
2024-05-09T05:33:19.249Z,60.13
2024-05-09T05:35:47.136Z,58.92
2024-05-09T05:38:15.195Z,57.99
2024-05-09T05:40:42.574Z,57.05
2024-05-09T05:43:18.089Z,57.96
2024-05-09T05:45:46.458Z,56.62
2024-05-09T05:48:18.122Z,56.71
2024-05-09T05:50:46.023Z,56.31
2024-05-09T05:53:13.841Z,56.21
2024-05-09T05:55:42.804Z,55.36
2024-05-09T05:58:15.019Z,56.94
2024-05-09T06:00:43.062Z,58.21
2024-05-09T06:03:13.710Z,59.28
2024-05-09T06:05:46.130Z,58.70
2024-05-09T06:08:14.029Z,58.86
2024-05-09T06:10:42.056Z,59.01
2024-05-09T06:13:14.003Z,57.66
2024-05-09T06:15:41.928Z,56.95
2024-05-09T06:18:11.257Z,56.54
2024-05-09T06:20:42.314Z,56.60
2024-05-09T06:23:11.326Z,55.23
2024-05-09T06:25:38.962Z,54.97
2024-05-09T06:28:06.996Z,55.20
2024-05-09T06:30:40.313Z,54.41
2024-05-09T06:33:13.242Z,54.66
2024-05-09T06:35:43.050Z,54.03
2024-05-09T06:38:11.060Z,53.55
2024-05-09T06:40:42.601Z,53.27
2024-05-09T06:43:13.288Z,52.74
2024-05-09T06:45:40.951Z,52.86
2024-05-09T06:48:09.835Z,52.45
2024-05-09T06:50:39.236Z,52.65
2024-05-09T06:53:08.700Z,52.03
2024-05-09T06:55:37.336Z,52.35
2024-05-09T06:58:12.035Z,51.84
2024-05-09T07:00:41.448Z,50.71
2024-05-09T07:03:17.159Z,49.86
2024-05-09T07:05:47.378Z,49.71
2024-05-09T07:08:16.807Z,49.44
2024-05-09T07:10:44.606Z,50.01
2024-05-09T07:13:14.799Z,49.72
2024-05-09T07:15:42.777Z,50.30
2024-05-09T07:18:17.424Z,49.99
2024-05-09T07:20:46.447Z,49.25
2024-05-09T07:23:14.286Z,48.95
2024-05-09T07:25:42.171Z,48.47
2024-05-09T07:28:16.133Z,48.55
2024-05-09T07:30:43.740Z,48.63
2024-05-09T07:33:23.300Z,48.37
2024-05-09T07:35:52.359Z,48.20
2024-05-09T07:38:20.227Z,47.41
2024-05-09T07:40:47.580Z,47.42
2024-05-09T07:43:16.189Z,47.45
2024-05-09T07:45:52.084Z,46.77
2024-05-09T07:52:38.486Z,47.38
2024-05-09T07:53:47.344Z,47.63
2024-05-09T07:56:19.410Z,47.04
2024-05-09T07:58:50.916Z,46.38
2024-05-09T08:01:18.734Z,46.29
2024-05-09T08:03:46.640Z,46.90
2024-05-09T08:06:14.164Z,46.60
2024-05-09T08:08:41.749Z,47.04
2024-05-09T08:11:08.905Z,45.17
2024-05-09T08:13:36.370Z,45.33
2024-05-09T08:16:03.767Z,44.84
2024-05-09T08:18:31.581Z,44.85
2024-05-09T08:20:59.317Z,45.33
2024-05-09T08:23:26.801Z,44.09
2024-05-09T08:25:54.037Z,43.51
2024-05-09T08:28:21.652Z,43.26
2024-05-09T08:30:49.062Z,42.06
2024-05-09T08:33:16.905Z,41.43
2024-05-09T08:35:44.102Z,41.63
2024-05-09T08:38:11.698Z,40.88
2024-05-09T08:40:39.279Z,40.64
2024-05-09T08:43:10.831Z,40.71
2024-05-09T08:45:43.778Z,40.82
2024-05-09T08:48:15.651Z,40.82
2024-05-09T08:50:45.672Z,40.85
2024-05-09T08:53:15.392Z,40.63
2024-05-09T08:55:44.747Z,40.72
2024-05-09T08:58:20.387Z,41.01
2024-05-09T09:00:49.177Z,40.70
2024-05-09T09:03:26.896Z,39.81
2024-05-09T09:06:05.796Z,38.81
2024-05-09T09:08:33.358Z,39.40
2024-05-09T09:11:01.136Z,38.62
2024-05-09T09:13:28.797Z,37.57
2024-05-09T09:15:59.018Z,36.84
2024-05-09T09:18:29.348Z,36.82
2024-05-09T09:20:56.675Z,36.22
2024-05-09T09:23:24.277Z,35.95
2024-05-09T09:25:52.088Z,35.48
2024-05-09T09:28:23.231Z,35.92
2024-05-09T09:30:50.449Z,35.41
2024-05-09T09:33:18.514Z,35.67
2024-05-09T09:35:45.848Z,34.25
2024-05-09T09:38:23.114Z,34.10
2024-05-09T09:40:51.232Z,34.88
2024-05-09T09:43:22.933Z,35.30
2024-05-09T09:45:53.446Z,33.79
2024-05-09T09:48:23.113Z,33.63
2024-05-09T09:50:56.774Z,34.20
2024-05-09T09:53:24.523Z,34.57
2024-05-09T09:55:53.115Z,35.12
2024-05-09T09:58:20.908Z,35.28
2024-05-09T10:00:55.643Z,35.03
2024-05-09T10:03:39.130Z,35.63
2024-05-09T10:06:09.010Z,34.67
2024-05-09T10:08:39.408Z,34.56
2024-05-09T10:11:08.253Z,34.71
2024-05-09T10:13:36.253Z,34.99
2024-05-09T10:16:21.170Z,35.21
2024-05-09T10:18:49.439Z,35.35
2024-05-09T10:21:33.046Z,35.37
2024-05-09T10:24:04.020Z,35.51
2024-05-09T10:26:39.564Z,33.83
2024-05-09T10:29:18.839Z,34.35
2024-05-09T10:31:48.183Z,34.16
2024-05-09T10:34:24.092Z,34.98
2024-05-09T10:36:55.006Z,33.46
2024-05-09T10:39:23.116Z,34.25
2024-05-09T10:41:50.375Z,33.25
2024-05-09T10:44:18.660Z,33.05
2024-05-09T10:46:46.403Z,32.95
2024-05-09T10:49:17.415Z,32.01
2024-05-09T10:51:48.483Z,32.04
2024-05-09T10:54:16.632Z,31.99
2024-05-09T10:56:55.742Z,31.77
2024-05-09T10:59:23.206Z,30.93
2024-05-09T11:01:51.131Z,30.89
2024-05-09T11:04:19.805Z,31.51
2024-05-09T11:06:47.747Z,31.20
2024-05-09T11:09:18.061Z,30.49
2024-05-09T11:11:45.583Z,30.85
2024-05-09T11:14:13.862Z,30.89
2024-05-09T11:16:41.411Z,31.35
2024-05-09T11:19:14.463Z,30.93
2024-05-09T11:21:41.782Z,30.87
2024-05-09T11:24:11.456Z,31.30
2024-05-09T11:26:39.078Z,31.15
2024-05-09T11:29:06.620Z,31.39
2024-05-09T11:31:44.630Z,30.85
2024-05-09T11:34:12.170Z,30.52
2024-05-09T11:36:39.591Z,30.12
2024-05-09T11:39:07.291Z,30.64
2024-05-09T11:41:36.001Z,30.23
2024-05-09T11:44:03.440Z,29.89
2024-05-09T11:46:30.687Z,30.13
2024-05-09T11:48:58.291Z,30.81
2024-05-09T11:51:25.394Z,31.42
2024-05-09T11:53:52.866Z,30.98
2024-05-09T11:56:20.031Z,30.85
2024-05-09T11:58:47.550Z,31.26
2024-05-09T12:01:14.731Z,31.26
2024-05-09T12:03:42.339Z,30.81
2024-05-09T12:06:09.688Z,29.62
2024-05-09T12:08:37.454Z,29.62
2024-05-09T12:11:05.258Z,30.45
2024-05-09T12:13:33.040Z,29.89
2024-05-09T12:16:00.298Z,30.51
2024-05-09T12:18:27.884Z,30.69
2024-05-09T12:20:55.015Z,30.96
2024-05-09T12:23:22.095Z,30.50
2024-05-09T12:25:49.977Z,31.03
2024-05-09T12:28:17.284Z,30.87
2024-05-09T12:30:44.986Z,30.96
2024-05-09T12:33:13.520Z,30.95
2024-05-09T12:35:44.463Z,31.29
2024-05-09T12:38:15.450Z,31.30
2024-05-09T12:40:43.607Z,31.14
2024-05-09T12:43:11.681Z,31.27
2024-05-09T12:45:40.566Z,31.47
2024-05-09T12:48:12.429Z,31.57
2024-05-09T12:50:41.429Z,31.68
2024-05-09T12:53:08.868Z,31.90
2024-05-09T12:55:44.254Z,31.41
2024-05-09T12:58:24.170Z,31.36
2024-05-09T13:00:52.730Z,30.76
2024-05-09T13:03:20.463Z,30.90
2024-05-09T13:05:50.108Z,30.40
2024-05-09T13:08:17.458Z,30.48
2024-05-09T13:10:45.222Z,30.03
2024-05-09T13:13:12.946Z,30.14
2024-05-09T13:15:40.834Z,29.82
2024-05-09T13:18:09.902Z,29.77
2024-05-09T13:20:37.668Z,30.09
2024-05-09T13:23:07.931Z,30.57
2024-05-09T13:25:38.044Z,30.60
2024-05-09T13:28:07.530Z,30.05
2024-05-09T13:30:40.407Z,29.45
2024-05-09T13:33:14.262Z,29.83
2024-05-09T13:35:47.182Z,29.49
2024-05-09T13:38:20.023Z,29.37
2024-05-09T13:40:49.032Z,30.01
2024-05-09T13:43:17.613Z,29.97
2024-05-09T13:45:45.851Z,30.18
2024-05-09T13:48:13.383Z,29.59
2024-05-09T13:50:41.370Z,30.38
2024-05-09T13:53:09.108Z,30.86
2024-05-09T13:55:40.292Z,30.07
2024-05-09T13:58:09.591Z,30.38
2024-05-09T14:00:45.931Z,30.90
2024-05-09T14:03:18.743Z,30.55
2024-05-09T14:05:48.252Z,30.69
2024-05-09T14:08:17.922Z,30.50
2024-05-09T14:10:47.264Z,31.39
2024-05-09T14:13:15.191Z,31.14
2024-05-09T14:15:42.925Z,31.14
2024-05-09T14:18:13.200Z,31.07
2024-05-09T14:20:42.922Z,30.94
2024-05-09T14:23:10.955Z,30.79
2024-05-09T14:25:42.653Z,30.29
2024-05-09T14:28:12.528Z,30.01
2024-05-09T14:30:41.636Z,30.52
2024-05-09T14:33:09.585Z,30.90
2024-05-09T14:35:38.841Z,30.52
2024-05-09T14:38:08.542Z,29.97
2024-05-09T14:40:42.243Z,30.44
2024-05-09T14:43:15.885Z,30.43
2024-05-09T14:45:45.220Z,30.54
2024-05-09T14:48:15.688Z,30.19
2024-05-09T14:50:43.763Z,30.29
2024-05-09T14:53:13.624Z,30.52
2024-05-09T14:55:43.327Z,29.16
2024-05-09T14:58:12.667Z,29.86
2024-05-09T15:00:46.712Z,29.71
2024-05-09T15:03:21.095Z,29.99
2024-05-09T15:05:51.079Z,30.01
2024-05-09T15:08:19.899Z,30.11
2024-05-09T15:10:50.072Z,29.76
2024-05-09T15:13:18.722Z,30.26
2024-05-09T15:15:46.830Z,30.65
2024-05-09T15:18:15.337Z,30.57
2024-05-09T15:20:44.090Z,30.51
2024-05-09T15:23:11.420Z,30.28
2024-05-09T15:25:38.925Z,30.08
2024-05-09T15:28:08.125Z,30.20
2024-05-09T15:30:36.593Z,30.21
2024-05-09T15:33:04.736Z,30.38
2024-05-09T15:35:33.939Z,30.49
2024-05-09T15:38:05.222Z,29.68
2024-05-09T15:40:39.539Z,29.58
2024-05-09T15:43:10.529Z,29.86
2024-05-09T15:45:40.758Z,29.49
2024-05-09T15:48:09.993Z,28.80
2024-05-09T15:50:41.010Z,28.25
2024-05-09T15:53:12.040Z,28.62
2024-05-09T15:55:41.531Z,28.43
2024-05-09T15:58:09.754Z,28.07
2024-05-09T16:00:41.439Z,28.09
2024-05-09T16:03:12.414Z,27.84
2024-05-09T16:05:43.288Z,27.97
2024-05-09T16:08:12.752Z,28.51
2024-05-09T16:10:44.589Z,28.53
2024-05-09T16:13:13.153Z,28.91
2024-05-09T16:15:41.281Z,28.97
2024-05-09T16:18:08.720Z,29.21
2024-05-09T16:20:40.290Z,29.27
2024-05-09T16:23:10.113Z,29.41
2024-05-09T16:25:39.075Z,29.63
2024-05-09T16:28:09.898Z,29.11
2024-05-09T16:30:40.085Z,29.34
2024-05-09T16:33:08.440Z,29.15
2024-05-09T16:35:37.492Z,29.03
2024-05-09T16:38:06.520Z,29.30
2024-05-09T16:40:38.838Z,29.42
2024-05-09T16:43:10.357Z,29.64
2024-05-09T16:45:45.002Z,29.67
2024-05-09T16:48:14.130Z,29.61
2024-05-09T16:50:42.017Z,29.67
2024-05-09T16:53:09.261Z,29.71
2024-05-09T16:55:36.996Z,29.80
2024-05-09T16:58:06.630Z,29.82
2024-05-09T17:00:40.983Z,29.85
2024-05-09T17:03:14.133Z,30.20
2024-05-09T17:05:44.064Z,30.28
2024-05-09T17:08:11.688Z,30.43
2024-05-09T17:10:39.263Z,30.29
2024-05-09T17:13:07.899Z,30.27
2024-05-09T17:15:37.608Z,30.48
2024-05-09T17:18:07.706Z,30.96
2024-05-09T17:20:37.491Z,31.21
2024-05-09T17:23:14.848Z,31.13
2024-05-09T17:25:43.215Z,31.33
2024-05-09T17:28:12.190Z,31.44
2024-05-09T17:30:42.205Z,31.91
2024-05-09T17:33:11.633Z,31.91
2024-05-09T17:35:40.544Z,31.92
2024-05-09T17:38:08.681Z,31.98
2024-05-09T17:40:38.096Z,32.13
2024-05-09T17:43:09.429Z,32.27
2024-05-09T17:45:40.511Z,32.44
2024-05-09T17:48:12.526Z,32.76
2024-05-09T17:50:41.605Z,32.84
2024-05-09T17:53:10.466Z,32.90
2024-05-09T17:55:39.237Z,33.09
2024-05-09T17:58:06.801Z,33.10
2024-05-09T18:00:39.432Z,33.68
2024-05-09T18:03:13.793Z,33.92
2024-05-09T18:05:44.521Z,33.43
2024-05-09T18:08:12.978Z,33.64
2024-05-09T18:10:41.889Z,33.67
2024-05-09T18:13:10.939Z,33.48
2024-05-09T18:15:42.571Z,34.08
2024-05-09T18:18:10.823Z,34.38
2024-05-09T18:20:43.885Z,34.24
2024-05-09T18:23:16.256Z,34.23
2024-05-09T18:25:46.544Z,34.33
2024-05-09T18:28:14.844Z,34.58
2024-05-09T18:30:43.247Z,34.71
2024-05-09T18:33:11.552Z,34.87
2024-05-09T18:35:43.971Z,34.91
2024-05-09T18:38:11.295Z,34.88
2024-05-09T18:40:40.233Z,35.15
2024-05-09T18:43:09.370Z,35.07
2024-05-09T18:45:38.200Z,35.65
2024-05-09T18:48:08.726Z,35.59
2024-05-09T18:50:39.634Z,35.77
2024-05-09T18:53:11.588Z,35.84
2024-05-09T18:55:40.315Z,36.22
2024-05-09T18:58:07.979Z,36.41
2024-05-09T19:00:38.690Z,36.59
2024-05-09T19:03:12.378Z,36.49
2024-05-09T19:05:45.901Z,36.61
2024-05-09T19:08:15.433Z,36.81
2024-05-09T19:10:43.006Z,37.38
2024-05-09T19:13:13.255Z,37.93
2024-05-09T19:15:43.103Z,38.36
2024-05-09T19:18:14.248Z,37.93
2024-05-09T19:20:42.454Z,38.37
2024-05-09T19:23:11.644Z,37.68
2024-05-09T19:25:39.135Z,38.22
2024-05-09T19:28:07.063Z,38.03
2024-05-09T19:30:39.803Z,38.55
2024-05-09T19:33:13.798Z,38.68
2024-05-09T19:35:42.997Z,38.78
2024-05-09T19:38:12.176Z,38.82
2024-05-09T19:40:39.371Z,38.49
2024-05-09T19:43:07.190Z,38.59
2024-05-09T19:45:35.626Z,38.80
2024-05-09T19:48:05.794Z,38.77
2024-05-09T19:50:41.275Z,38.72
2024-05-09T19:53:12.958Z,39.10
2024-05-09T19:55:43.531Z,39.16
2024-05-09T19:58:12.308Z,39.05
2024-05-09T20:00:42.270Z,39.01
2024-05-09T20:03:13.291Z,39.24
2024-05-09T20:05:44.666Z,39.27
2024-05-09T20:08:12.868Z,39.33
2024-05-09T20:10:40.068Z,39.64
2024-05-09T20:13:08.398Z,40.21
2024-05-09T20:15:37.820Z,40.53
2024-05-09T20:18:06.771Z,40.08
2024-05-09T20:20:39.601Z,40.44
2024-05-09T20:23:14.259Z,40.35
2024-05-09T20:25:42.433Z,40.48
2024-05-09T20:28:10.880Z,40.59
2024-05-09T20:30:38.530Z,40.98
2024-05-09T20:33:07.788Z,41.54
2024-05-09T20:35:36.496Z,41.66
2024-05-09T20:38:04.823Z,41.95
2024-05-09T20:40:36.753Z,41.46
2024-05-09T20:43:10.798Z,42.03
2024-05-09T20:45:38.789Z,41.80
2024-05-09T20:48:08.203Z,42.06
2024-05-09T20:50:39.755Z,42.23
2024-05-09T20:53:12.907Z,42.29
2024-05-09T20:55:41.212Z,42.33
2024-05-09T20:58:10.291Z,42.48
2024-05-09T21:00:41.330Z,42.13
2024-05-09T21:03:13.790Z,42.69
2024-05-09T21:05:42.259Z,42.53
2024-05-09T21:08:10.301Z,42.85
2024-05-09T21:10:38.055Z,42.54
2024-05-09T21:13:06.823Z,42.61
2024-05-09T21:15:35.322Z,43.01
2024-05-09T21:18:04.132Z,43.22
2024-05-09T21:20:33.433Z,42.97
2024-05-09T21:23:02.259Z,42.75
2024-05-09T21:25:30.109Z,42.81
2024-05-09T21:27:58.128Z,42.43
2024-05-09T21:32:55.899Z,42.42
2024-05-09T21:35:23.019Z,42.04
2024-05-09T21:37:50.513Z,42.45
2024-05-09T21:40:27.008Z,42.27
2024-05-09T21:43:01.370Z,42.76
2024-05-09T21:45:28.693Z,42.53
2024-05-09T21:47:56.384Z,42.85
2024-05-09T21:50:31.781Z,43.03
2024-05-09T21:53:07.103Z,42.72
2024-05-09T21:55:34.567Z,42.46
2024-05-09T21:58:02.767Z,42.90
2024-05-09T22:00:36.130Z,43.04
2024-05-09T22:03:10.606Z,43.17
2024-05-09T22:05:42.152Z,43.74
2024-05-09T22:08:10.996Z,44.05
2024-05-09T22:10:38.301Z,44.36
2024-05-09T22:13:06.992Z,44.54
2024-05-09T22:15:40.105Z,44.41
2024-05-09T22:18:10.346Z,44.81
2024-05-09T22:20:45.337Z,44.93
2024-05-09T22:23:14.902Z,45.03
2024-05-09T22:25:42.501Z,46.00
2024-05-09T22:28:10.337Z,45.71
2024-05-09T22:30:39.699Z,46.44
2024-05-09T22:33:10.141Z,46.51
2024-05-09T22:35:39.346Z,47.04
2024-05-09T22:38:07.009Z,47.43
2024-05-09T22:40:44.912Z,47.39
2024-05-09T22:43:24.278Z,47.52
2024-05-09T22:45:55.932Z,48.22
2024-05-09T22:48:25.186Z,47.97
2024-05-09T22:50:54.468Z,48.15
2024-05-09T22:53:25.627Z,48.22
2024-05-09T22:55:53.460Z,48.12
2024-05-09T22:58:21.562Z,48.58
2024-05-09T23:00:48.995Z,48.90
2024-05-09T23:03:16.858Z,48.76
2024-05-09T23:05:44.482Z,48.87
2024-05-09T23:08:11.969Z,49.01
2024-05-09T23:10:39.268Z,49.42
2024-05-09T23:13:07.997Z,49.80
2024-05-09T23:15:38.440Z,49.92
2024-05-09T23:18:07.461Z,50.09
2024-05-09T23:20:38.566Z,50.56
2024-05-09T23:23:09.805Z,51.05
2024-05-09T23:25:38.124Z,51.05
2024-05-09T23:28:06.312Z,50.93
2024-05-09T23:30:38.348Z,51.25
2024-05-09T23:33:11.953Z,51.26
2024-05-09T23:35:41.925Z,51.54
2024-05-09T23:38:09.835Z,51.49
2024-05-09T23:40:40.011Z,52.32
2024-05-09T23:43:11.843Z,52.21
2024-05-09T23:45:39.966Z,52.35
2024-05-09T23:48:08.663Z,52.46
2024-05-09T23:50:38.262Z,52.66
2024-05-09T23:53:08.966Z,52.79
2024-05-09T23:55:37.666Z,53.24
2024-05-09T23:58:06.833Z,53.05
